Saturday, December 15, 2018, 11:32 PM EST
Back to Local

KVAY, Mt Holly South Jersey Rgnl

Location: Medford, NJ, United States Lat: 39.933
Local Time: 11:32 PM EST ( 4:32 GMT) Lon: -74.833
Time Zone: US/Eastern Elev: 52 ft

Show me the last for .
Show Decoded

2018-12-15 22:54 METAR KVAY 160354Z AUTO 07008G21KT 5SM -RA BR OVC021 09/07 A3003 RMK AO2 RAB24
                 SLP169 P0006 T00890067 =
2018-12-15 21:54 METAR KVAY 160254Z AUTO 06010G18KT 10SM OVC022 10/06 A3004 RMK AO2 RAE12 SLP171
                 P0000 60000 T01000056 58007 =
2018-12-15 20:54 METAR KVAY 160154Z AUTO 05010G15KT 10SM -RA OVC024 10/06 A3004 RMK AO2 RAB51
                 PRESFR SLP172 P0000 T01000061 =
2018-12-15 19:54 METAR KVAY 160054Z AUTO 05008KT 10SM OVC022 10/06 A3008 RMK AO2 SLP184 T01000061
                 =
2018-12-15 19:39 METAR KVAY 160039Z AUTO 03008KT 10SM BKN021 OVC041 10/06 A3008 RMK AO2 T01000061
                 =
2018-12-15 19:08 METAR KVAY 160008Z AUTO 05006KT 10SM FEW020 BKN041 BKN110 10/07 A3005 RMK AO2
                 T01000067 =
2018-12-15 18:54 METAR KVAY 152354Z AUTO 07006KT 10SM BKN020 BKN033 OVC043 10/07 A3006 RMK AO2
                 SLP178 60005 T01000067 10106 20100 53003 =
2018-12-15 17:54 METAR KVAY 152254Z AUTO 07004KT 10SM BKN021 OVC110 10/07 A3006 RMK AO2 RAB11E22
                 SLP177 P0000 T01000072 =
2018-12-15 17:05 METAR KVAY 152205Z AUTO 05004KT 10SM SCT024 SCT080 OVC110 10/08 A3004 RMK AO2
                 T01000078 =
2018-12-15 16:54 METAR KVAY 152154Z AUTO 07004KT 10SM BKN024 BKN070 OVC110 10/08 A3005 RMK AO2
                 SLP175 T01000083 =
2018-12-15 15:59 METAR KVAY 152059Z AUTO 07006KT 8SM SCT007 SCT014 OVC020 11/09 A3005 RMK AO2
                 T01060089 =
2018-12-15 15:54 METAR KVAY 152054Z AUTO 06006KT 6SM BR BKN007 BKN014 OVC020 11/09 A3005 RMK AO2
                 CIG 005V012 SLP176 60005 T01060094 53007 =
2018-12-15 15:49 METAR KVAY 152049Z AUTO 07007KT 6SM BR BKN007 BKN014 OVC020 11/09 A3005 RMK AO2
                 CIG 005V012 =
2018-12-15 14:54 METAR KVAY 151954Z AUTO 03006KT 3SM BR OVC005 10/09 A3003 RMK AO2 RAE26 SLP169
                 P0001 T01000094 =
2018-12-15 14:31 METAR KVAY 151931Z AUTO 04007KT 3SM BR OVC004 10/09 A3005 RMK AO2 RAE26 P0001
                 T01000094 =
2018-12-15 14:10 METAR KVAY 151910Z AUTO 03007KT 2SM -RA BR OVC004 10/09 A3006 RMK AO2 P0001
                 T01000094 =
2018-12-15 13:54 METAR KVAY 151854Z AUTO 04006KT 1 1/2SM -RA BR OVC003 10/09 A3007 RMK AO2 SLP181
                 P0004 T01000094 =
2018-12-15 13:32 METAR KVAY 151832Z AUTO 04004KT 1 1/4SM -RA BR OVC003 10/09 A3008 RMK AO2 P0003
                 T01000094 =
2018-12-15 13:21 METAR KVAY 151821Z AUTO 04005KT 1SM -RA BR OVC003 10/09 A3008 RMK AO2 P0003
                 T01000094 =
2018-12-15 13:06 METAR KVAY 151806Z AUTO 04005KT 3/4SM -RA BR OVC003 10/09 A3008 RMK AO2 P0001
                 T01000094 =
2018-12-15 12:54 METAR KVAY 151754Z AUTO 04004KT 1SM -RA BR OVC003 10/09 A3008 RMK AO2 SLP185
                 P0001 60006 T01000094 10100 20094 55016 =
2018-12-15 12:44 METAR KVAY 151744Z AUTO 05005KT 1SM -RA BR OVC003 10/09 A3008 RMK AO2 P0001
                 T01000094 =
2018-12-15 12:07 METAR KVAY 151707Z AUTO 04008KT 1 1/4SM -RA BR OVC002 10/09 A3009 RMK AO2 P0000
                 T01000094 =
2018-12-15 11:54 METAR KVAY 151654Z AUTO 02009KT 1/2SM -RA FG VV002 10/10 A3008 RMK AO2 SLP185
                 P0001 T01000100 =
2018-12-15 11:08 METAR KVAY 151608Z AUTO 03004KT 3/4SM -RA BR OVC002 10/10 A3010 RMK AO2 P0000
                 T01000100 =
2018-12-15 10:54 METAR KVAY 151554Z AUTO 04006KT 1 1/2SM -RA BR OVC002 10/10 A3011 RMK AO2 SLP195
                 P0001 T01000100 =
2018-12-15 10:28 METAR KVAY 151528Z AUTO 09004KT 1 1/4SM -RA BR OVC002 10/09 A3011 RMK AO2 P0000
                 T01000094 =
2018-12-15 09:54 METAR KVAY 151454Z AUTO 03006KT 1/2SM -RA FG VV002 10/09 A3013 RMK AO2 SLP202
                 P0002 60003 T01000094 53004 =
2018-12-15 08:54 METAR KVAY 151354Z AUTO 02005KT 1/2SM -RA FG VV002 09/09 A3013 RMK AO2 SLP202
                 P0001 T00940089 =
2018-12-15 07:59 METAR KVAY 151259Z AUTO 02006KT 3/4SM -RA BR VV002 09/09 A3011 RMK AO2 P0000
                 T00940089 =
2018-12-15 07:52 METAR KVAY 151252Z AUTO 01005KT 1 1/2SM -RA BR OVC002 09/09 A3011 RMK AO2 RAB52
                 SLP195 P0000 T00940089 =
2018-12-15 07:51 METAR KVAY 151251Z AUTO 02005KT 1 3/4SM BR OVC002 09/09 A3011 RMK AO2 =
2018-12-15 07:08 METAR KVAY 151208Z AUTO 10003KT 3SM BR OVC002 09/09 A3012 RMK AO2 T00940094 =
2018-12-15 06:54 METAR KVAY 151154Z AUTO 10005KT 2SM BR OVC002 09/09 A3012 RMK AO2
                 RAB1059E19B26E38 SLP198 P0001 60007 70017 T00940089 10094 20078 58015 =
2018-12-15 06:43 METAR KVAY 151143Z AUTO 00000KT 1 1/4SM BR OVC003 09/08 A3012 RMK AO2
                 RAB1059E19B26E38 P0001 T00890083 =
2018-12-15 06:20 METAR KVAY 151120Z AUTO 00000KT 1/2SM FG BKN003 OVC080 08/08 A3014 RMK AO2
                 RAB1059E19 P0000 T00830078 =
2018-12-15 06:15 METAR KVAY 151115Z AUTO 00000KT 3/4SM -RA BR SCT003 SCT020 OVC080 08/08 A3014
                 RMK AO2 RAB1059 P0000 T00830078 =
2018-12-15 06:07 METAR KVAY 151107Z AUTO 07003KT 3/4SM -RA BR FEW015 BKN070 OVC085 08/08 A3014
                 RMK AO2 RAB1059 P0000 T00830083 =
2018-12-15 05:54 METAR KVAY 151054Z AUTO 07003KT 1SM BR FEW002 BKN023 OVC085 09/08 A3015 RMK AO2
                 RAE35 SLP207 P0000 T00890083 =
2018-12-15 05:45 METAR KVAY 151045Z AUTO 07003KT 3/4SM BR SCT006 BKN015 OVC022 08/08 A3015 RMK
                 AO2 RAE35 P0000 T00830083 =
2018-12-15 05:35 METAR KVAY 151035Z AUTO 00000KT 1SM BR SCT004 SCT015 OVC022 09/08 A3015 RMK AO2
                 RAE35 P0000 T00890083 =
2018-12-15 05:00 METAR KVAY 151000Z AUTO 00000KT 3/4SM -RA BR OVC003 08/08 A3016 RMK AO2 P0000
                 T00830083 =
2018-12-15 04:54 METAR KVAY 150954Z AUTO 00000KT 1 1/4SM -RA BR OVC003 09/08 A3016 RMK AO2
                 RAE10B31 SLP212 P0001 T00890083 =
2018-12-15 04:39 METAR KVAY 150939Z AUTO 00000KT 3/4SM -RA BR OVC003 08/08 A3016 RMK AO2 RAE10B31
                 P0000 T00830083 =
2018-12-15 04:30 METAR KVAY 150930Z AUTO 00000KT 1SM BR OVC004 08/08 A3016 RMK AO2 RAE10 CIG
                 002V007 P0000 T00830078 =
2018-12-15 04:19 METAR KVAY 150919Z AUTO 00000KT 1SM BR BKN005 BKN030 OVC044 08/08 A3016 RMK AO2
                 RAE10 CIG 003V007 P0000 T00830078 =
2018-12-15 04:09 METAR KVAY 150909Z AUTO 00000KT 1 1/4SM -RA BR FEW007 BKN030 OVC042 08/08 A3017
                 RMK AO2 P0000 T00830083 =
2018-12-15 04:03 METAR KVAY 150903Z AUTO 00000KT 1SM -RA BR BKN030 BKN042 OVC080 08/08 A3017 RMK
                 AO2 P0000 T00830083 =
2018-12-15 03:54 METAR KVAY 150854Z AUTO 00000KT 3/4SM -RA BR FEW011 BKN031 OVC043 08/08 A3018
                 RMK AO2 RAB0759 SLP218 P0002 60005 T00830078 57010 =
2018-12-15 03:51 METAR KVAY 150851Z AUTO 00000KT 3/4SM -RA BR FEW009 BKN031 OVC043 08/08 A3018
                 RMK AO2 RAB0759 P0002 =
2018-12-15 03:43 METAR KVAY 150843Z AUTO 36003KT 1SM -RA BR SCT009 BKN013 OVC031 08/08 A3018 RMK
                 AO2 RAB0759 P0002 T00830078 =
2018-12-15 03:17 METAR KVAY 150817Z AUTO 00000KT 1 1/4SM -RA BR OVC013 08/08 A3020 RMK AO2
                 RAB0759 P0000 T00830083 =
2018-12-15 03:01 METAR KVAY 150801Z AUTO 00000KT 1 3/4SM -RA BR OVC015 08/08 A3020 RMK AO2
                 RAB0759 P0000 T00830083 =
2018-12-15 02:54 METAR KVAY 150754Z AUTO 00000KT 1SM BR OVC017 08/08 A3020 RMK AO2 RAE39 SLP227
                 P0001 T00830078 =
2018-12-15 02:43 METAR KVAY 150743Z AUTO 01003KT 3/4SM BR FEW002 BKN018 OVC080 08/08 A3020 RMK
                 AO2 RAE39 P0001 T00830078 =
2018-12-15 01:54 METAR KVAY 150654Z AUTO 00000KT 1/2SM -RA FG SCT006 BKN080 OVC090 08/08 A3021
                 RMK AO2 SLP228 P0002 T00780078 =
2018-12-15 01:36 METAR KVAY 150636Z AUTO 00000KT 3/4SM -RA BR BKN006 BKN075 OVC090 08/08 A3021
                 RMK AO2 P0002 T00830078 =
2018-12-15 01:24 METAR KVAY 150624Z AUTO 00000KT 1SM -RA BR BKN007 OVC075 08/08 A3020 RMK AO2
                 P0001 T00830083 =
2018-12-15 01:15 METAR KVAY 150615Z AUTO 00000KT 1 1/4SM -RA BR BKN007 OVC075 08/08 A3021 RMK AO2
                 P0001 T00830078 =
2018-12-15 01:13 METAR KVAY 150613Z AUTO 00000KT 1 1/4SM -RA BR SCT007 SCT025 OVC075 08/08 A3021
                 RMK AO2 P0001 T00830078 =
2018-12-15 01:02 METAR KVAY 150602Z AUTO 00000KT 1SM -RA BR SCT023 OVC075 08/08 A3021 RMK AO2
                 P0000 T00830078 =
2018-12-15 00:56 METAR KVAY 150556Z AUTO 00000KT 1 3/4SM -RA BR FEW009 BKN023 OVC080 08/08 A3021
                 RMK AO2 P0000 T00830078 =
2018-12-15 00:54 METAR KVAY 150554Z AUTO 00000KT 2SM -RA BR FEW011 BKN028 OVC080 08/08 A3021 RMK
                 AO2 RAB32 SLP228 P0001 60010 T00830083 10089 20078 58006 =
2018-12-15 00:50 METAR KVAY 150550Z AUTO 00000KT 2SM -RA BR BKN022 BKN028 OVC080 09/08 A3021 RMK
                 AO2 RAB32 P0001 =
2018-12-15 00:30 METAR KVAY 150530Z AUTO 00000KT 4SM BR FEW012 BKN028 OVC034 09/08 A3021 RMK AO2
                 T00890083 =
2018-12-15 00:23 METAR KVAY 150523Z AUTO 08003KT 2 1/2SM BR BKN026 OVC034 08/08 A3022 RMK AO2
                 T00830083 =
2018-12-15 00:15 METAR KVAY 150515Z AUTO 00000KT 1 1/4SM BR SCT026 OVC034 08/08 A3022 RMK AO2
                 T00830078 =
2018-12-14 23:54 METAR KVAY 150454Z AUTO 00000KT 1 3/4SM BR FEW004 OVC027 08/08 A3023 RMK AO2
                 RAE32 SLP235 P0001 T00830083 401171006 =
2018-12-14 23:51 METAR KVAY 150451Z AUTO 00000KT 1 1/2SM BR FEW004 BKN029 OVC041 08/08 A3022 RMK
                 AO2 RAE32 P0001 =

Support USWX by starting your Amazon purchase here.